sensor_id;sensor_type;location;lat;lon;timestamp;temperature;humidity
49032;DHT22;63443;48.366;10.876;2022-11-20T00:02:25;4.50;99.90
49032;DHT22;63443;48.366;10.876;2022-11-20T00:04:50;4.50;99.90
49032;DHT22;63443;48.366;10.876;2022-11-20T00:07:16;4.50;99.90
49032;DHT22;63443;48.366;10.876;2022-11-20T00:09:41;4.50;99.90
49032;DHT22;63443;48.366;10.876;2022-11-20T00:12:07;4.50;99.90
49032;DHT22;63443;48.366;10.876;2022-11-20T00:14:33;4.40;99.90
49032;DHT22;63443;48.366;10.876;2022-11-20T00:16:58;4.40;99.90
49032;DHT22;63443;48.366;10.876;2022-11-20T00:19:24;4.40;99.90
49032;DHT22;63443;48.366;10.876;2022-11-20T00:21:49;4.40;99.90
49032;DHT22;63443;48.366;10.876;2022-11-20T00:24:17;4.40;99.90
49032;DHT22;63443;48.366;10.876;2022-11-20T00:26:42;4.40;99.90
49032;DHT22;63443;48.366;10.876;2022-11-20T00:29:09;4.40;99.90
49032;DHT22;63443;48.366;10.876;2022-11-20T00:31:35;4.40;99.90
49032;DHT22;63443;48.366;10.876;2022-11-20T00:34:01;4.40;99.90
49032;DHT22;63443;48.366;10.876;2022-11-20T00:36:28;4.50;99.90
49032;DHT22;63443;48.366;10.876;2022-11-20T00:38:55;4.50;99.90
49032;DHT22;63443;48.366;10.876;2022-11-20T00:41:22;4.50;99.90
49032;DHT22;63443;48.366;10.876;2022-11-20T00:43:48;4.50;99.90
49032;DHT22;63443;48.366;10.876;2022-11-20T00:46:19;4.50;99.90
49032;DHT22;63443;48.366;10.876;2022-11-20T00:48:45;4.40;99.90
49032;DHT22;63443;48.366;10.876;2022-11-20T00:51:14;4.40;99.90
49032;DHT22;63443;48.366;10.876;2022-11-20T00:53:40;4.40;99.90
49032;DHT22;63443;48.366;10.876;2022-11-20T00:56:09;4.40;99.90
49032;DHT22;63443;48.366;10.876;2022-11-20T00:58:37;4.40;99.90
49032;DHT22;63443;48.366;10.876;2022-11-20T01:01:14;4.40;99.90
49032;DHT22;63443;48.366;10.876;2022-11-20T01:03:42;4.40;99.90
49032;DHT22;63443;48.366;10.876;2022-11-20T01:06:13;4.40;99.90
49032;DHT22;63443;48.366;10.876;2022-11-20T01:08:40;4.40;99.90
49032;DHT22;63443;48.366;10.876;2022-11-20T01:11:09;4.40;99.90
49032;DHT22;63443;48.366;10.876;2022-11-20T01:13:35;4.40;99.90
49032;DHT22;63443;48.366;10.876;2022-11-20T01:16:15;4.40;99.90
49032;DHT22;63443;48.366;10.876;2022-11-20T01:18:43;4.40;99.90
49032;DHT22;63443;48.366;10.876;2022-11-20T01:21:25;4.40;99.90
49032;DHT22;63443;48.366;10.876;2022-11-20T01:23:52;4.40;99.90
49032;DHT22;63443;48.366;10.876;2022-11-20T01:26:20;4.40;99.90
49032;DHT22;63443;48.366;10.876;2022-11-20T01:28:46;4.40;99.90
49032;DHT22;63443;48.366;10.876;2022-11-20T01:31:15;4.40;99.90
49032;DHT22;63443;48.366;10.876;2022-11-20T01:33:42;4.40;99.90
49032;DHT22;63443;48.366;10.876;2022-11-20T01:36:08;4.40;99.90
49032;DHT22;63443;48.366;10.876;2022-11-20T01:38:34;4.50;99.90
49032;DHT22;63443;48.366;10.876;2022-11-20T01:41:00;4.50;99.90
49032;DHT22;63443;48.366;10.876;2022-11-20T01:43:26;4.50;99.90
49032;DHT22;63443;48.366;10.876;2022-11-20T01:46:02;4.50;99.90
49032;DHT22;63443;48.366;10.876;2022-11-20T01:48:38;4.50;99.90
49032;DHT22;63443;48.366;10.876;2022-11-20T01:51:16;4.50;99.90
49032;DHT22;63443;48.366;10.876;2022-11-20T01:53:42;4.40;99.90
49032;DHT22;63443;48.366;10.876;2022-11-20T01:56:10;4.50;99.90
49032;DHT22;63443;48.366;10.876;2022-11-20T01:58:42;4.40;99.90
49032;DHT22;63443;48.366;10.876;2022-11-20T02:01:09;4.50;99.90
49032;DHT22;63443;48.366;10.876;2022-11-20T02:03:35;4.50;99.90
49032;DHT22;63443;48.366;10.876;2022-11-20T02:06:16;4.40;99.90
49032;DHT22;63443;48.366;10.876;2022-11-20T02:08:42;4.40;99.90
49032;DHT22;63443;48.366;10.876;2022-11-20T02:11:09;4.30;99.90
49032;DHT22;63443;48.366;10.876;2022-11-20T02:13:34;4.30;99.90
49032;DHT22;63443;48.366;10.876;2022-11-20T02:16:24;4.30;99.90
49032;DHT22;63443;48.366;10.876;2022-11-20T02:18:51;4.20;99.90
49032;DHT22;63443;48.366;10.876;2022-11-20T02:26:35;4.10;99.90
49032;DHT22;63443;48.366;10.876;2022-11-20T02:29:02;4.10;99.90
49032;DHT22;63443;48.366;10.876;2022-11-20T02:31:28;4.10;99.90
49032;DHT22;63443;48.366;10.876;2022-11-20T02:33:57;4.00;99.90
49032;DHT22;63443;48.366;10.876;2022-11-20T02:36:25;4.10;99.90
49032;DHT22;63443;48.366;10.876;2022-11-20T02:38:51;4.00;99.90
49032;DHT22;63443;48.366;10.876;2022-11-20T02:41:17;4.00;99.90
49032;DHT22;63443;48.366;10.876;2022-11-20T02:43:43;3.90;99.90
49032;DHT22;63443;48.366;10.876;2022-11-20T02:46:08;3.90;99.90
49032;DHT22;63443;48.366;10.876;2022-11-20T02:48:34;3.90;99.90
49032;DHT22;63443;48.366;10.876;2022-11-20T02:51:00;3.90;99.90
49032;DHT22;63443;48.366;10.876;2022-11-20T02:53:26;3.90;99.90
49032;DHT22;63443;48.366;10.876;2022-11-20T02:55:51;3.90;99.90
49032;DHT22;63443;48.366;10.876;2022-11-20T02:58:17;4.00;99.90
49032;DHT22;63443;48.366;10.876;2022-11-20T03:00:42;4.10;99.90
49032;DHT22;63443;48.366;10.876;2022-11-20T03:03:08;4.10;99.90
49032;DHT22;63443;48.366;10.876;2022-11-20T03:05:34;4.10;99.90
49032;DHT22;63443;48.366;10.876;2022-11-20T03:07:59;4.10;99.90
49032;DHT22;63443;48.366;10.876;2022-11-20T03:10:25;4.20;99.90
49032;DHT22;63443;48.366;10.876;2022-11-20T03:12:55;4.10;99.90
49032;DHT22;63443;48.366;10.876;2022-11-20T03:15:22;4.10;99.90
49032;DHT22;63443;48.366;10.876;2022-11-20T03:17:47;4.20;99.90
49032;DHT22;63443;48.366;10.876;2022-11-20T03:20:13;4.20;99.90
49032;DHT22;63443;48.366;10.876;2022-11-20T03:22:39;4.20;99.90
49032;DHT22;63443;48.366;10.876;2022-11-20T03:25:05;4.20;99.90
49032;DHT22;63443;48.366;10.876;2022-11-20T03:27:34;4.20;99.90
49032;DHT22;63443;48.366;10.876;2022-11-20T03:30:00;4.20;99.90
49032;DHT22;63443;48.366;10.876;2022-11-20T03:32:26;4.20;99.90
49032;DHT22;63443;48.366;10.876;2022-11-20T03:34:51;4.20;99.90
49032;DHT22;63443;48.366;10.876;2022-11-20T03:37:17;4.20;99.90
49032;DHT22;63443;48.366;10.876;2022-11-20T03:39:42;4.20;99.90
49032;DHT22;63443;48.366;10.876;2022-11-20T03:42:08;4.20;99.90
49032;DHT22;63443;48.366;10.876;2022-11-20T03:44:54;4.20;99.90
49032;DHT22;63443;48.366;10.876;2022-11-20T03:47:20;4.20;99.90
49032;DHT22;63443;48.366;10.876;2022-11-20T03:49:45;4.20;99.90
49032;DHT22;63443;48.366;10.876;2022-11-20T03:52:11;4.20;99.90
49032;DHT22;63443;48.366;10.876;2022-11-20T03:54:37;4.30;99.90
49032;DHT22;63443;48.366;10.876;2022-11-20T03:57:02;4.30;99.90
49032;DHT22;63443;48.366;10.876;2022-11-20T03:59:28;4.30;99.90
49032;DHT22;63443;48.366;10.876;2022-11-20T04:01:53;4.30;99.90
49032;DHT22;63443;48.366;10.876;2022-11-20T04:04:19;4.30;99.90
49032;DHT22;63443;48.366;10.876;2022-11-20T04:06:44;4.40;99.90
49032;DHT22;63443;48.366;10.876;2022-11-20T04:09:10;4.40;99.90
49032;DHT22;63443;48.366;10.876;2022-11-20T04:11:37;4.40;99.90
49032;DHT22;63443;48.366;10.876;2022-11-20T04:14:06;4.40;99.90
49032;DHT22;63443;48.366;10.876;2022-11-20T04:16:34;4.30;99.90
49032;DHT22;63443;48.366;10.876;2022-11-20T04:19:02;4.30;99.90
49032;DHT22;63443;48.366;10.876;2022-11-20T04:21:28;4.30;99.90
49032;DHT22;63443;48.366;10.876;2022-11-20T04:23:54;4.30;99.90
49032;DHT22;63443;48.366;10.876;2022-11-20T04:26:21;4.30;99.90
49032;DHT22;63443;48.366;10.876;2022-11-20T04:28:47;4.40;99.90
49032;DHT22;63443;48.366;10.876;2022-11-20T04:31:16;4.40;99.90
49032;DHT22;63443;48.366;10.876;2022-11-20T04:33:41;4.40;99.90
49032;DHT22;63443;48.366;10.876;2022-11-20T04:36:12;4.40;99.90
49032;DHT22;63443;48.366;10.876;2022-11-20T04:38:38;4.40;99.90
49032;DHT22;63443;48.366;10.876;2022-11-20T04:41:07;4.40;99.90
49032;DHT22;63443;48.366;10.876;2022-11-20T04:43:33;4.40;99.90
49032;DHT22;63443;48.366;10.876;2022-11-20T04:46:00;4.40;99.90
49032;DHT22;63443;48.366;10.876;2022-11-20T04:48:27;4.40;99.90
49032;DHT22;63443;48.366;10.876;2022-11-20T04:50:53;4.40;99.90
49032;DHT22;63443;48.366;10.876;2022-11-20T04:53:19;4.40;99.90
49032;DHT22;63443;48.366;10.876;2022-11-20T04:55:45;4.30;99.90
49032;DHT22;63443;48.366;10.876;2022-11-20T04:58:11;4.30;99.90
49032;DHT22;63443;48.366;10.876;2022-11-20T05:00:37;4.20;99.90
49032;DHT22;63443;48.366;10.876;2022-11-20T05:03:03;4.20;99.90
49032;DHT22;63443;48.366;10.876;2022-11-20T05:05:29;4.20;99.90
49032;DHT22;63443;48.366;10.876;2022-11-20T05:07:58;4.20;99.90
49032;DHT22;63443;48.366;10.876;2022-11-20T05:10:24;4.20;99.90
49032;DHT22;63443;48.366;10.876;2022-11-20T05:12:50;4.20;99.90
49032;DHT22;63443;48.366;10.876;2022-11-20T05:15:16;4.30;99.90
49032;DHT22;63443;48.366;10.876;2022-11-20T05:17:46;4.30;99.90
49032;DHT22;63443;48.366;10.876;2022-11-20T05:20:11;4.30;99.90
49032;DHT22;63443;48.366;10.876;2022-11-20T05:22:37;4.30;99.90
49032;DHT22;63443;48.366;10.876;2022-11-20T05:25:02;4.30;99.90
49032;DHT22;63443;48.366;10.876;2022-11-20T05:27:28;4.20;99.90
49032;DHT22;63443;48.366;10.876;2022-11-20T05:29:53;4.20;99.90
49032;DHT22;63443;48.366;10.876;2022-11-20T05:32:19;4.20;99.90
49032;DHT22;63443;48.366;10.876;2022-11-20T05:34:44;4.20;99.90
49032;DHT22;63443;48.366;10.876;2022-11-20T05:37:10;4.10;99.90
49032;DHT22;63443;48.366;10.876;2022-11-20T05:39:35;4.20;99.90
49032;DHT22;63443;48.366;10.876;2022-11-20T05:42:00;4.20;99.90
49032;DHT22;63443;48.366;10.876;2022-11-20T05:44:44;4.10;99.90
49032;DHT22;63443;48.366;10.876;2022-11-20T05:47:10;4.20;99.90
49032;DHT22;63443;48.366;10.876;2022-11-20T05:49:35;4.20;99.90
49032;DHT22;63443;48.366;10.876;2022-11-20T05:52:01;4.20;99.90
49032;DHT22;63443;48.366;10.876;2022-11-20T05:54:26;4.30;99.90
49032;DHT22;63443;48.366;10.876;2022-11-20T05:56:52;4.20;99.90
49032;DHT22;63443;48.366;10.876;2022-11-20T05:59:17;4.30;99.90
49032;DHT22;63443;48.366;10.876;2022-11-20T06:01:43;4.30;99.90
49032;DHT22;63443;48.366;10.876;2022-11-20T06:04:08;4.30;99.90
49032;DHT22;63443;48.366;10.876;2022-11-20T06:06:34;4.30;99.90
49032;DHT22;63443;48.366;10.876;2022-11-20T06:08:59;4.30;99.90
49032;DHT22;63443;48.366;10.876;2022-11-20T06:11:24;4.30;99.90
49032;DHT22;63443;48.366;10.876;2022-11-20T06:13:50;4.30;99.90
49032;DHT22;63443;48.366;10.876;2022-11-20T06:16:16;4.30;99.90
49032;DHT22;63443;48.366;10.876;2022-11-20T06:18:42;4.30;99.90
49032;DHT22;63443;48.366;10.876;2022-11-20T06:21:08;4.30;99.90
49032;DHT22;63443;48.366;10.876;2022-11-20T06:23:34;4.30;99.90
49032;DHT22;63443;48.366;10.876;2022-11-20T06:26:01;4.20;99.90
49032;DHT22;63443;48.366;10.876;2022-11-20T06:28:27;4.20;99.90
49032;DHT22;63443;48.366;10.876;2022-11-20T06:30:52;4.20;99.90
49032;DHT22;63443;48.366;10.876;2022-11-20T06:33:17;4.20;99.90
49032;DHT22;63443;48.366;10.876;2022-11-20T06:35:43;4.20;99.90
49032;DHT22;63443;48.366;10.876;2022-11-20T06:38:08;4.20;99.90
49032;DHT22;63443;48.366;10.876;2022-11-20T06:40:34;4.10;99.90
49032;DHT22;63443;48.366;10.876;2022-11-20T06:42:59;4.20;99.90
49032;DHT22;63443;48.366;10.876;2022-11-20T06:45:25;4.20;99.90
49032;DHT22;63443;48.366;10.876;2022-11-20T06:47:52;4.20;99.90
49032;DHT22;63443;48.366;10.876;2022-11-20T06:50:17;4.20;99.90
49032;DHT22;63443;48.366;10.876;2022-11-20T06:52:43;4.30;99.90
49032;DHT22;63443;48.366;10.876;2022-11-20T06:55:08;4.30;99.90
49032;DHT22;63443;48.366;10.876;2022-11-20T06:57:34;4.30;99.90
49032;DHT22;63443;48.366;10.876;2022-11-20T06:59:59;4.40;99.90
49032;DHT22;63443;48.366;10.876;2022-11-20T07:02:25;4.40;99.90
49032;DHT22;63443;48.366;10.876;2022-11-20T07:04:50;4.50;99.90
49032;DHT22;63443;48.366;10.876;2022-11-20T07:07:16;4.50;99.90
49032;DHT22;63443;48.366;10.876;2022-11-20T07:09:41;4.50;99.90
49032;DHT22;63443;48.366;10.876;2022-11-20T07:12:06;4.50;99.90
49032;DHT22;63443;48.366;10.876;2022-11-20T07:14:32;4.60;99.90
49032;DHT22;63443;48.366;10.876;2022-11-20T07:16:57;4.70;99.90
49032;DHT22;63443;48.366;10.876;2022-11-20T07:19:23;4.70;99.90
49032;DHT22;63443;48.366;10.876;2022-11-20T07:21:48;4.80;99.90
49032;DHT22;63443;48.366;10.876;2022-11-20T07:24:14;4.90;99.90
49032;DHT22;63443;48.366;10.876;2022-11-20T07:26:39;4.90;99.90
49032;DHT22;63443;48.366;10.876;2022-11-20T07:29:05;4.90;99.90
49032;DHT22;63443;48.366;10.876;2022-11-20T07:31:30;4.90;99.90
49032;DHT22;63443;48.366;10.876;2022-11-20T07:33:56;4.90;99.90
49032;DHT22;63443;48.366;10.876;2022-11-20T07:36:21;4.90;99.90
49032;DHT22;63443;48.366;10.876;2022-11-20T07:38:47;5.00;99.90
49032;DHT22;63443;48.366;10.876;2022-11-20T07:41:12;5.00;99.90
49032;DHT22;63443;48.366;10.876;2022-11-20T07:43:37;5.00;99.90
49032;DHT22;63443;48.366;10.876;2022-11-20T07:46:03;5.10;99.90
49032;DHT22;63443;48.366;10.876;2022-11-20T07:48:29;5.20;99.90
49032;DHT22;63443;48.366;10.876;2022-11-20T07:50:55;5.40;99.90
49032;DHT22;63443;48.366;10.876;2022-11-20T07:53:21;5.50;99.90
49032;DHT22;63443;48.366;10.876;2022-11-20T07:55:47;5.50;99.90
49032;DHT22;63443;48.366;10.876;2022-11-20T07:58:13;5.50;99.90
49032;DHT22;63443;48.366;10.876;2022-11-20T08:00:39;5.50;99.90
49032;DHT22;63443;48.366;10.876;2022-11-20T08:03:05;5.50;99.90
49032;DHT22;63443;48.366;10.876;2022-11-20T08:05:30;5.60;99.90
49032;DHT22;63443;48.366;10.876;2022-11-20T08:07:56;5.50;99.90
49032;DHT22;63443;48.366;10.876;2022-11-20T08:10:21;5.40;99.90
49032;DHT22;63443;48.366;10.876;2022-11-20T08:12:50;5.40;99.90
49032;DHT22;63443;48.366;10.876;2022-11-20T08:15:35;5.40;99.90
49032;DHT22;63443;48.366;10.876;2022-11-20T08:18:01;5.60;99.90
49032;DHT22;63443;48.366;10.876;2022-11-20T08:20:27;5.90;99.90
49032;DHT22;63443;48.366;10.876;2022-11-20T08:22:56;6.00;99.90
49032;DHT22;63443;48.366;10.876;2022-11-20T08:25:22;6.00;99.90
49032;DHT22;63443;48.366;10.876;2022-11-20T08:27:47;6.00;99.90
49032;DHT22;63443;48.366;10.876;2022-11-20T08:30:13;6.00;99.90
49032;DHT22;63443;48.366;10.876;2022-11-20T08:32:38;6.00;99.90
49032;DHT22;63443;48.366;10.876;2022-11-20T08:35:04;6.00;99.90
49032;DHT22;63443;48.366;10.876;2022-11-20T08:37:30;6.00;99.90
49032;DHT22;63443;48.366;10.876;2022-11-20T08:39:55;6.10;99.90
49032;DHT22;63443;48.366;10.876;2022-11-20T08:42:22;6.10;99.90
49032;DHT22;63443;48.366;10.876;2022-11-20T08:44:47;6.10;99.90
49032;DHT22;63443;48.366;10.876;2022-11-20T08:47:13;6.10;99.90
49032;DHT22;63443;48.366;10.876;2022-11-20T08:49:38;6.00;99.90
49032;DHT22;63443;48.366;10.876;2022-11-20T08:52:04;6.00;99.90
49032;DHT22;63443;48.366;10.876;2022-11-20T08:54:29;6.00;99.90
49032;DHT22;63443;48.366;10.876;2022-11-20T08:56:54;6.00;99.90
49032;DHT22;63443;48.366;10.876;2022-11-20T08:59:20;6.10;99.90
49032;DHT22;63443;48.366;10.876;2022-11-20T09:01:45;6.10;99.90
49032;DHT22;63443;48.366;10.876;2022-11-20T09:04:11;6.20;99.90
49032;DHT22;63443;48.366;10.876;2022-11-20T09:06:38;6.20;99.90
49032;DHT22;63443;48.366;10.876;2022-11-20T09:09:04;6.10;99.90
49032;DHT22;63443;48.366;10.876;2022-11-20T09:11:31;6.10;99.90
49032;DHT22;63443;48.366;10.876;2022-11-20T09:13:56;6.10;99.90
49032;DHT22;63443;48.366;10.876;2022-11-20T09:16:22;6.00;99.90
49032;DHT22;63443;48.366;10.876;2022-11-20T09:18:49;6.10;99.90
49032;DHT22;63443;48.366;10.876;2022-11-20T09:21:15;6.20;99.90
49032;DHT22;63443;48.366;10.876;2022-11-20T09:23:40;6.30;99.90
49032;DHT22;63443;48.366;10.876;2022-11-20T09:26:10;6.20;99.90
49032;DHT22;63443;48.366;10.876;2022-11-20T09:28:36;6.10;99.90
49032;DHT22;63443;48.366;10.876;2022-11-20T09:31:04;6.10;99.90
49032;DHT22;63443;48.366;10.876;2022-11-20T09:33:30;6.10;99.90
49032;DHT22;63443;48.366;10.876;2022-11-20T09:35:55;6.20;99.90
49032;DHT22;63443;48.366;10.876;2022-11-20T09:38:21;6.30;99.90
49032;DHT22;63443;48.366;10.876;2022-11-20T09:40:49;6.50;99.90
49032;DHT22;63443;48.366;10.876;2022-11-20T09:43:18;6.70;99.90
49032;DHT22;63443;48.366;10.876;2022-11-20T09:45:50;7.00;99.90
49032;DHT22;63443;48.366;10.876;2022-11-20T09:50:50;6.90;99.90
49032;DHT22;63443;48.366;10.876;2022-11-20T09:55:47;7.60;99.90
49032;DHT22;63443;48.366;10.876;2022-11-20T09:58:15;7.40;99.90
49032;DHT22;63443;48.366;10.876;2022-11-20T10:00:42;7.10;99.90
49032;DHT22;63443;48.366;10.876;2022-11-20T10:03:18;7.00;99.90
49032;DHT22;63443;48.366;10.876;2022-11-20T10:05:46;6.80;99.90
49032;DHT22;63443;48.366;10.876;2022-11-20T10:08:22;6.60;99.90
49032;DHT22;63443;48.366;10.876;2022-11-20T10:10:50;6.50;99.90
49032;DHT22;63443;48.366;10.876;2022-11-20T10:13:34;6.40;99.90
49032;DHT22;63443;48.366;10.876;2022-11-20T10:16:07;6.30;99.90
49032;DHT22;63443;48.366;10.876;2022-11-20T10:31:34;6.50;99.90
49032;DHT22;63443;48.366;10.876;2022-11-20T10:34:03;6.50;99.90
49032;DHT22;63443;48.366;10.876;2022-11-20T10:36:33;6.60;99.90
49032;DHT22;63443;48.366;10.876;2022-11-20T10:39:07;6.70;99.90
49032;DHT22;63443;48.366;10.876;2022-11-20T10:41:40;6.70;99.90
49032;DHT22;63443;48.366;10.876;2022-11-20T10:44:14;6.70;99.90
49032;DHT22;63443;48.366;10.876;2022-11-20T10:46:40;6.70;99.90
49032;DHT22;63443;48.366;10.876;2022-11-20T10:49:11;6.60;99.90
49032;DHT22;63443;48.366;10.876;2022-11-20T11:01:41;6.60;99.90
49032;DHT22;63443;48.366;10.876;2022-11-20T11:07:04;6.50;99.90
49032;DHT22;63443;48.366;10.876;2022-11-20T11:09:34;6.50;99.90
49032;DHT22;63443;48.366;10.876;2022-11-20T11:12:00;6.50;99.90
49032;DHT22;63443;48.366;10.876;2022-11-20T11:14:26;6.50;99.90
49032;DHT22;63443;48.366;10.876;2022-11-20T11:16:55;6.30;99.90
49032;DHT22;63443;48.366;10.876;2022-11-20T11:19:21;6.30;99.90
49032;DHT22;63443;48.366;10.876;2022-11-20T11:21:47;6.30;99.90
49032;DHT22;63443;48.366;10.876;2022-11-20T11:24:20;6.40;99.90
49032;DHT22;63443;48.366;10.876;2022-11-20T11:26:57;6.30;99.90
49032;DHT22;63443;48.366;10.876;2022-11-20T11:29:23;6.30;99.90
49032;DHT22;63443;48.366;10.876;2022-11-20T11:32:02;6.20;99.90
49032;DHT22;63443;48.366;10.876;2022-11-20T11:34:27;6.30;99.90
49032;DHT22;63443;48.366;10.876;2022-11-20T11:36:56;6.30;99.90
49032;DHT22;63443;48.366;10.876;2022-11-20T11:39:22;6.40;99.90
49032;DHT22;63443;48.366;10.876;2022-11-20T11:41:48;6.70;99.90
49032;DHT22;63443;48.366;10.876;2022-11-20T11:46:58;6.90;99.90
49032;DHT22;63443;48.366;10.876;2022-11-20T11:49:24;6.90;99.90
49032;DHT22;63443;48.366;10.876;2022-11-20T11:52:04;6.80;99.90
49032;DHT22;63443;48.366;10.876;2022-11-20T11:57:07;6.60;99.90
49032;DHT22;63443;48.366;10.876;2022-11-20T11:59:41;6.50;99.90
49032;DHT22;63443;48.366;10.876;2022-11-20T12:02:15;6.40;99.90
49032;DHT22;63443;48.366;10.876;2022-11-20T12:04:44;6.20;99.90
49032;DHT22;63443;48.366;10.876;2022-11-20T12:07:25;6.10;99.90
49032;DHT22;63443;48.366;10.876;2022-11-20T12:09:53;6.10;99.90
49032;DHT22;63443;48.366;10.876;2022-11-20T12:12:20;6.10;99.90
49032;DHT22;63443;48.366;10.876;2022-11-20T12:14:47;6.10;99.90
49032;DHT22;63443;48.366;10.876;2022-11-20T12:17:15;6.10;99.90
49032;DHT22;63443;48.366;10.876;2022-11-20T12:19:41;6.00;99.90
49032;DHT22;63443;48.366;10.876;2022-11-20T12:24:42;5.90;99.90
49032;DHT22;63443;48.366;10.876;2022-11-20T12:32:25;5.90;99.90
49032;DHT22;63443;48.366;10.876;2022-11-20T12:35:00;5.90;99.90
49032;DHT22;63443;48.366;10.876;2022-11-20T12:38:01;5.90;99.90
49032;DHT22;63443;48.366;10.876;2022-11-20T12:45:52;6.10;99.90
49032;DHT22;63443;48.366;10.876;2022-11-20T12:53:26;6.10;99.90
49032;DHT22;63443;48.366;10.876;2022-11-20T12:55:56;6.00;99.90
49032;DHT22;63443;48.366;10.876;2022-11-20T12:58:36;6.00;99.90
49032;DHT22;63443;48.366;10.876;2022-11-20T13:03:56;6.10;99.90
49032;DHT22;63443;48.366;10.876;2022-11-20T13:06:25;6.20;99.90
49032;DHT22;63443;48.366;10.876;2022-11-20T13:08:54;6.10;99.90
49032;DHT22;63443;48.366;10.876;2022-11-20T13:16:30;6.10;99.90
49032;DHT22;63443;48.366;10.876;2022-11-20T13:19:01;6.10;99.90
49032;DHT22;63443;48.366;10.876;2022-11-20T13:21:36;6.00;99.90
49032;DHT22;63443;48.366;10.876;2022-11-20T13:24:06;6.00;99.90
49032;DHT22;63443;48.366;10.876;2022-11-20T13:26:32;5.90;99.90
49032;DHT22;63443;48.366;10.876;2022-11-20T13:29:09;5.80;99.90
49032;DHT22;63443;48.366;10.876;2022-11-20T13:31:36;5.80;99.90
49032;DHT22;63443;48.366;10.876;2022-11-20T13:34:05;5.90;99.90
49032;DHT22;63443;48.366;10.876;2022-11-20T13:36:31;5.90;99.90
49032;DHT22;63443;48.366;10.876;2022-11-20T13:38:58;5.90;99.90
49032;DHT22;63443;48.366;10.876;2022-11-20T13:41:31;5.90;99.90
49032;DHT22;63443;48.366;10.876;2022-11-20T13:46:41;6.00;99.90
49032;DHT22;63443;48.366;10.876;2022-11-20T13:49:09;6.00;99.90
49032;DHT22;63443;48.366;10.876;2022-11-20T14:00:01;6.00;99.90
49032;DHT22;63443;48.366;10.876;2022-11-20T14:02:09;6.00;99.90
49032;DHT22;63443;48.366;10.876;2022-11-20T14:04:36;6.00;99.90
49032;DHT22;63443;48.366;10.876;2022-11-20T14:07:05;6.00;99.90
49032;DHT22;63443;48.366;10.876;2022-11-20T14:09:31;6.00;99.90
49032;DHT22;63443;48.366;10.876;2022-11-20T14:11:57;6.00;99.90
49032;DHT22;63443;48.366;10.876;2022-11-20T14:14:27;6.10;99.90
49032;DHT22;63443;48.366;10.876;2022-11-20T14:17:04;6.10;99.90
49032;DHT22;63443;48.366;10.876;2022-11-20T14:19:30;6.10;99.90
49032;DHT22;63443;48.366;10.876;2022-11-20T14:22:10;6.10;99.90
49032;DHT22;63443;48.366;10.876;2022-11-20T14:24:40;6.10;99.90
49032;DHT22;63443;48.366;10.876;2022-11-20T14:27:40;6.00;99.90
49032;DHT22;63443;48.366;10.876;2022-11-20T14:30:00;6.00;99.90
49032;DHT22;63443;48.366;10.876;2022-11-20T14:32:26;6.00;99.90
49032;DHT22;63443;48.366;10.876;2022-11-20T14:34:53;5.90;99.90
49032;DHT22;63443;48.366;10.876;2022-11-20T14:37:22;6.00;99.90
49032;DHT22;63443;48.366;10.876;2022-11-20T14:39:52;6.00;99.90
49032;DHT22;63443;48.366;10.876;2022-11-20T14:42:19;6.00;99.90
49032;DHT22;63443;48.366;10.876;2022-11-20T14:44:45;6.00;99.90
49032;DHT22;63443;48.366;10.876;2022-11-20T14:47:12;6.10;99.90
49032;DHT22;63443;48.366;10.876;2022-11-20T14:49:38;6.10;99.90
49032;DHT22;63443;48.366;10.876;2022-11-20T14:52:14;6.10;99.90
49032;DHT22;63443;48.366;10.876;2022-11-20T14:54:43;6.10;99.90
49032;DHT22;63443;48.366;10.876;2022-11-20T14:57:18;6.10;99.90
49032;DHT22;63443;48.366;10.876;2022-11-20T14:59:44;6.20;99.90
49032;DHT22;63443;48.366;10.876;2022-11-20T15:02:10;6.10;99.90
49032;DHT22;63443;48.366;10.876;2022-11-20T15:04:55;6.10;99.90
49032;DHT22;63443;48.366;10.876;2022-11-20T15:07:25;6.00;99.90
49032;DHT22;63443;48.366;10.876;2022-11-20T15:10:07;6.00;99.90
49032;DHT22;63443;48.366;10.876;2022-11-20T15:12:52;6.00;99.90
49032;DHT22;63443;48.366;10.876;2022-11-20T15:15:20;6.00;99.90
49032;DHT22;63443;48.366;10.876;2022-11-20T15:17:46;6.00;99.90
49032;DHT22;63443;48.366;10.876;2022-11-20T15:20:13;5.90;99.90
49032;DHT22;63443;48.366;10.876;2022-11-20T15:22:39;5.80;99.90
49032;DHT22;63443;48.366;10.876;2022-11-20T15:25:11;5.70;99.90
49032;DHT22;63443;48.366;10.876;2022-11-20T15:27:36;5.60;99.90
49032;DHT22;63443;48.366;10.876;2022-11-20T15:30:04;5.60;99.90
49032;DHT22;63443;48.366;10.876;2022-11-20T15:32:30;5.50;99.90
49032;DHT22;63443;48.366;10.876;2022-11-20T15:34:55;5.50;99.90
49032;DHT22;63443;48.366;10.876;2022-11-20T15:37:21;5.40;99.90
49032;DHT22;63443;48.366;10.876;2022-11-20T15:39:46;5.40;99.90
49032;DHT22;63443;48.366;10.876;2022-11-20T15:42:12;5.40;99.90
49032;DHT22;63443;48.366;10.876;2022-11-20T15:44:37;5.40;99.90
49032;DHT22;63443;48.366;10.876;2022-11-20T15:47:03;5.40;99.90
49032;DHT22;63443;48.366;10.876;2022-11-20T15:49:28;5.40;99.90
49032;DHT22;63443;48.366;10.876;2022-11-20T15:51:54;5.40;99.90
49032;DHT22;63443;48.366;10.876;2022-11-20T15:54:20;5.40;99.90
49032;DHT22;63443;48.366;10.876;2022-11-20T15:56:46;5.40;99.90
49032;DHT22;63443;48.366;10.876;2022-11-20T15:59:12;5.30;99.90
49032;DHT22;63443;48.366;10.876;2022-11-20T16:01:39;5.30;99.90
49032;DHT22;63443;48.366;10.876;2022-11-20T16:04:09;5.30;99.90
49032;DHT22;63443;48.366;10.876;2022-11-20T16:06:34;5.20;99.90
49032;DHT22;63443;48.366;10.876;2022-11-20T16:09:00;5.20;99.90
49032;DHT22;63443;48.366;10.876;2022-11-20T16:11:25;5.30;99.90
49032;DHT22;63443;48.366;10.876;2022-11-20T16:13:51;5.30;99.90
49032;DHT22;63443;48.366;10.876;2022-11-20T16:16:35;5.20;99.90
49032;DHT22;63443;48.366;10.876;2022-11-20T16:19:01;5.20;99.90
49032;DHT22;63443;48.366;10.876;2022-11-20T16:21:27;5.10;99.90
49032;DHT22;63443;48.366;10.876;2022-11-20T16:24:00;5.10;99.90
49032;DHT22;63443;48.366;10.876;2022-11-20T16:26:25;5.10;99.90
49032;DHT22;63443;48.366;10.876;2022-11-20T16:28:51;5.10;99.90
49032;DHT22;63443;48.366;10.876;2022-11-20T16:31:17;5.20;99.90
49032;DHT22;63443;48.366;10.876;2022-11-20T16:33:43;5.20;99.90
49032;DHT22;63443;48.366;10.876;2022-11-20T16:36:12;5.20;99.90
49032;DHT22;63443;48.366;10.876;2022-11-20T16:38:38;5.20;99.90
49032;DHT22;63443;48.366;10.876;2022-11-20T16:41:04;5.20;99.90
49032;DHT22;63443;48.366;10.876;2022-11-20T16:43:30;5.20;99.90
49032;DHT22;63443;48.366;10.876;2022-11-20T16:45:55;5.20;99.90
49032;DHT22;63443;48.366;10.876;2022-11-20T16:48:21;5.10;99.90
49032;DHT22;63443;48.366;10.876;2022-11-20T16:50:50;5.00;99.90
49032;DHT22;63443;48.366;10.876;2022-11-20T16:53:19;4.90;99.90